sensor_id;sensor_type;location;lat;lon;timestamp;P1;durP1;ratioP1;P2;durP2;ratioP2
17921;SDS011;9086;50.966;3.144;2023-03-14T00:02:18;5.90;;;1.60;;
17921;SDS011;9086;50.966;3.144;2023-03-14T00:04:44;2.60;;;1.30;;
17921;SDS011;9086;50.966;3.144;2023-03-14T00:07:11;6.67;;;1.80;;
17921;SDS011;9086;50.966;3.144;2023-03-14T00:09:37;3.87;;;1.40;;
17921;SDS011;9086;50.966;3.144;2023-03-14T00:12:03;5.20;;;1.67;;
17921;SDS011;9086;50.966;3.144;2023-03-14T00:14:30;4.90;;;1.50;;
17921;SDS011;9086;50.966;3.144;2023-03-14T00:16:57;8.53;;;1.87;;
17921;SDS011;9086;50.966;3.144;2023-03-14T00:19:23;8.40;;;2.03;;
17921;SDS011;9086;50.966;3.144;2023-03-14T00:21:49;8.90;;;1.80;;
17921;SDS011;9086;50.966;3.144;2023-03-14T00:24:14;6.27;;;2.03;;
17921;SDS011;9086;50.966;3.144;2023-03-14T00:26:40;2.80;;;1.33;;
17921;SDS011;9086;50.966;3.144;2023-03-14T00:29:06;3.40;;;1.57;;
17921;SDS011;9086;50.966;3.144;2023-03-14T00:31:32;7.50;;;2.10;;
17921;SDS011;9086;50.966;3.144;2023-03-14T00:34:00;7.07;;;2.37;;
17921;SDS011;9086;50.966;3.144;2023-03-14T00:36:26;8.40;;;1.97;;
17921;SDS011;9086;50.966;3.144;2023-03-14T00:38:52;6.83;;;2.10;;
17921;SDS011;9086;50.966;3.144;2023-03-14T00:41:20;7.20;;;1.77;;
17921;SDS011;9086;50.966;3.144;2023-03-14T00:43:47;8.27;;;1.97;;
17921;SDS011;9086;50.966;3.144;2023-03-14T00:46:14;6.37;;;1.97;;
17921;SDS011;9086;50.966;3.144;2023-03-14T00:48:40;8.00;;;1.60;;
17921;SDS011;9086;50.966;3.144;2023-03-14T00:51:06;7.80;;;2.10;;
17921;SDS011;9086;50.966;3.144;2023-03-14T00:53:35;11.73;;;2.50;;
17921;SDS011;9086;50.966;3.144;2023-03-14T00:56:05;11.43;;;2.30;;
17921;SDS011;9086;50.966;3.144;2023-03-14T00:58:31;6.23;;;1.83;;
17921;SDS011;9086;50.966;3.144;2023-03-14T01:00:57;7.27;;;1.93;;
17921;SDS011;9086;50.966;3.144;2023-03-14T01:03:23;7.80;;;2.20;;
17921;SDS011;9086;50.966;3.144;2023-03-14T01:05:49;8.67;;;2.07;;
17921;SDS011;9086;50.966;3.144;2023-03-14T01:08:16;7.63;;;2.00;;
17921;SDS011;9086;50.966;3.144;2023-03-14T01:10:42;5.77;;;1.80;;
17921;SDS011;9086;50.966;3.144;2023-03-14T01:13:09;14.33;;;2.27;;
17921;SDS011;9086;50.966;3.144;2023-03-14T01:15:35;7.97;;;1.70;;
17921;SDS011;9086;50.966;3.144;2023-03-14T01:18:02;4.83;;;1.60;;
17921;SDS011;9086;50.966;3.144;2023-03-14T01:20:28;6.33;;;2.00;;
17921;SDS011;9086;50.966;3.144;2023-03-14T01:22:54;6.13;;;1.73;;
17921;SDS011;9086;50.966;3.144;2023-03-14T01:25:20;10.17;;;1.83;;
17921;SDS011;9086;50.966;3.144;2023-03-14T01:27:46;3.67;;;1.33;;
17921;SDS011;9086;50.966;3.144;2023-03-14T01:30:12;3.83;;;1.80;;
17921;SDS011;9086;50.966;3.144;2023-03-14T01:32:38;3.73;;;1.40;;
17921;SDS011;9086;50.966;3.144;2023-03-14T01:35:05;6.17;;;1.70;;
17921;SDS011;9086;50.966;3.144;2023-03-14T01:37:31;6.27;;;1.30;;
17921;SDS011;9086;50.966;3.144;2023-03-14T01:39:57;6.67;;;1.57;;
17921;SDS011;9086;50.966;3.144;2023-03-14T01:42:23;4.27;;;1.13;;
17921;SDS011;9086;50.966;3.144;2023-03-14T01:47:18;6.00;;;1.43;;
17921;SDS011;9086;50.966;3.144;2023-03-14T01:49:45;3.33;;;1.17;;
17921;SDS011;9086;50.966;3.144;2023-03-14T01:52:13;4.40;;;1.10;;
17921;SDS011;9086;50.966;3.144;2023-03-14T01:54:43;4.10;;;1.70;;
17921;SDS011;9086;50.966;3.144;2023-03-14T01:57:14;4.23;;;1.63;;
17921;SDS011;9086;50.966;3.144;2023-03-14T01:59:44;6.97;;;1.53;;
17921;SDS011;9086;50.966;3.144;2023-03-14T02:02:11;4.03;;;1.10;;
17921;SDS011;9086;50.966;3.144;2023-03-14T02:04:39;4.30;;;1.47;;
17921;SDS011;9086;50.966;3.144;2023-03-14T02:07:11;2.57;;;0.87;;
17921;SDS011;9086;50.966;3.144;2023-03-14T02:09:38;5.33;;;1.40;;
17921;SDS011;9086;50.966;3.144;2023-03-14T02:12:05;3.30;;;0.93;;
17921;SDS011;9086;50.966;3.144;2023-03-14T02:14:32;3.67;;;0.97;;
17921;SDS011;9086;50.966;3.144;2023-03-14T02:16:58;3.23;;;0.77;;
17921;SDS011;9086;50.966;3.144;2023-03-14T02:22:10;2.30;;;0.70;;
17921;SDS011;9086;50.966;3.144;2023-03-14T02:27:17;2.23;;;0.50;;
17921;SDS011;9086;50.966;3.144;2023-03-14T02:29:57;3.30;;;0.60;;
17921;SDS011;9086;50.966;3.144;2023-03-14T02:32:23;3.23;;;0.80;;
17921;SDS011;9086;50.966;3.144;2023-03-14T02:34:52;2.17;;;0.70;;
17921;SDS011;9086;50.966;3.144;2023-03-14T02:37:20;2.20;;;0.70;;
17921;SDS011;9086;50.966;3.144;2023-03-14T02:39:47;2.93;;;1.17;;
17921;SDS011;9086;50.966;3.144;2023-03-14T02:42:14;1.33;;;0.60;;
17921;SDS011;9086;50.966;3.144;2023-03-14T02:44:50;2.33;;;0.90;;
17921;SDS011;9086;50.966;3.144;2023-03-14T02:47:17;1.93;;;0.80;;
17921;SDS011;9086;50.966;3.144;2023-03-14T02:49:44;2.47;;;0.90;;
17921;SDS011;9086;50.966;3.144;2023-03-14T02:52:10;4.00;;;0.93;;
17921;SDS011;9086;50.966;3.144;2023-03-14T02:54:36;2.20;;;0.70;;
17921;SDS011;9086;50.966;3.144;2023-03-14T02:57:02;2.37;;;1.33;;
17921;SDS011;9086;50.966;3.144;2023-03-14T02:59:28;1.60;;;0.80;;
17921;SDS011;9086;50.966;3.144;2023-03-14T03:01:54;2.70;;;0.67;;
17921;SDS011;9086;50.966;3.144;2023-03-14T03:04:20;3.80;;;0.93;;
17921;SDS011;9086;50.966;3.144;2023-03-14T03:06:46;1.87;;;1.10;;
17921;SDS011;9086;50.966;3.144;2023-03-14T03:09:12;6.97;;;1.37;;
17921;SDS011;9086;50.966;3.144;2023-03-14T03:11:38;3.83;;;1.07;;
17921;SDS011;9086;50.966;3.144;2023-03-14T03:14:04;1.87;;;0.93;;
17921;SDS011;9086;50.966;3.144;2023-03-14T03:16:30;2.23;;;0.87;;
17921;SDS011;9086;50.966;3.144;2023-03-14T03:18:56;3.83;;;1.10;;
17921;SDS011;9086;50.966;3.144;2023-03-14T03:21:22;1.97;;;1.00;;
17921;SDS011;9086;50.966;3.144;2023-03-14T03:23:48;4.07;;;1.23;;
17921;SDS011;9086;50.966;3.144;2023-03-14T03:26:14;2.67;;;1.07;;
17921;SDS011;9086;50.966;3.144;2023-03-14T03:28:40;1.33;;;1.07;;
17921;SDS011;9086;50.966;3.144;2023-03-14T03:31:09;4.77;;;1.70;;
17921;SDS011;9086;50.966;3.144;2023-03-14T03:33:36;4.60;;;1.33;;
17921;SDS011;9086;50.966;3.144;2023-03-14T03:36:02;3.37;;;1.30;;
17921;SDS011;9086;50.966;3.144;2023-03-14T03:38:28;3.83;;;1.53;;
17921;SDS011;9086;50.966;3.144;2023-03-14T03:40:54;3.10;;;1.70;;
17921;SDS011;9086;50.966;3.144;2023-03-14T03:43:20;3.90;;;1.77;;
17921;SDS011;9086;50.966;3.144;2023-03-14T03:45:46;4.20;;;1.53;;
17921;SDS011;9086;50.966;3.144;2023-03-14T03:48:12;4.03;;;1.90;;
17921;SDS011;9086;50.966;3.144;2023-03-14T03:50:43;3.03;;;1.53;;
17921;SDS011;9086;50.966;3.144;2023-03-14T03:53:09;3.33;;;1.57;;
17921;SDS011;9086;50.966;3.144;2023-03-14T03:55:35;1.70;;;1.60;;
17921;SDS011;9086;50.966;3.144;2023-03-14T03:58:01;2.80;;;1.50;;
17921;SDS011;9086;50.966;3.144;2023-03-14T04:00:27;2.77;;;1.90;;
17921;SDS011;9086;50.966;3.144;2023-03-14T04:02:53;3.87;;;1.87;;
17921;SDS011;9086;50.966;3.144;2023-03-14T04:05:19;3.37;;;1.53;;
17921;SDS011;9086;50.966;3.144;2023-03-14T04:07:45;2.97;;;1.13;;
17921;SDS011;9086;50.966;3.144;2023-03-14T04:10:11;1.20;;;1.10;;
17921;SDS011;9086;50.966;3.144;2023-03-14T04:12:37;2.00;;;1.00;;
17921;SDS011;9086;50.966;3.144;2023-03-14T04:15:03;1.30;;;1.00;;
17921;SDS011;9086;50.966;3.144;2023-03-14T04:17:29;2.43;;;0.80;;
17921;SDS011;9086;50.966;3.144;2023-03-14T04:19:55;4.57;;;1.00;;
17921;SDS011;9086;50.966;3.144;2023-03-14T04:22:21;1.27;;;0.97;;
17921;SDS011;9086;50.966;3.144;2023-03-14T04:24:47;2.23;;;0.80;;
17921;SDS011;9086;50.966;3.144;2023-03-14T04:27:13;1.80;;;0.77;;
17921;SDS011;9086;50.966;3.144;2023-03-14T04:29:39;1.20;;;0.60;;
17921;SDS011;9086;50.966;3.144;2023-03-14T04:32:05;2.70;;;0.80;;
17921;SDS011;9086;50.966;3.144;2023-03-14T04:34:31;4.00;;;1.17;;
17921;SDS011;9086;50.966;3.144;2023-03-14T04:36:57;4.60;;;1.43;;
17921;SDS011;9086;50.966;3.144;2023-03-14T04:39:23;1.80;;;1.30;;
17921;SDS011;9086;50.966;3.144;2023-03-14T04:41:49;2.23;;;1.10;;
17921;SDS011;9086;50.966;3.144;2023-03-14T04:44:15;3.30;;;1.60;;
17921;SDS011;9086;50.966;3.144;2023-03-14T04:46:41;4.27;;;1.73;;
17921;SDS011;9086;50.966;3.144;2023-03-14T04:49:07;4.47;;;1.60;;
17921;SDS011;9086;50.966;3.144;2023-03-14T04:51:33;4.60;;;1.97;;
17921;SDS011;9086;50.966;3.144;2023-03-14T04:53:59;3.30;;;1.73;;
17921;SDS011;9086;50.966;3.144;2023-03-14T04:56:25;4.13;;;2.00;;
17921;SDS011;9086;50.966;3.144;2023-03-14T04:58:52;4.80;;;2.00;;
17921;SDS011;9086;50.966;3.144;2023-03-14T05:01:18;4.17;;;2.40;;
17921;SDS011;9086;50.966;3.144;2023-03-14T05:03:44;8.07;;;3.17;;
17921;SDS011;9086;50.966;3.144;2023-03-14T05:06:10;3.97;;;2.20;;
17921;SDS011;9086;50.966;3.144;2023-03-14T05:08:36;6.10;;;2.63;;
17921;SDS011;9086;50.966;3.144;2023-03-14T05:11:02;2.20;;;1.07;;
17921;SDS011;9086;50.966;3.144;2023-03-14T05:13:28;1.57;;;0.90;;
17921;SDS011;9086;50.966;3.144;2023-03-14T05:16:01;3.37;;;1.43;;
17921;SDS011;9086;50.966;3.144;2023-03-14T05:18:28;2.90;;;1.20;;
17921;SDS011;9086;50.966;3.144;2023-03-14T05:20:54;4.97;;;1.13;;
17921;SDS011;9086;50.966;3.144;2023-03-14T05:23:20;4.70;;;1.30;;
17921;SDS011;9086;50.966;3.144;2023-03-14T05:25:46;3.33;;;1.53;;
17921;SDS011;9086;50.966;3.144;2023-03-14T05:28:12;6.00;;;1.77;;
17921;SDS011;9086;50.966;3.144;2023-03-14T05:30:38;7.80;;;1.60;;
17921;SDS011;9086;50.966;3.144;2023-03-14T05:33:04;6.77;;;1.90;;
17921;SDS011;9086;50.966;3.144;2023-03-14T05:35:30;4.50;;;1.87;;
17921;SDS011;9086;50.966;3.144;2023-03-14T05:37:56;6.13;;;2.17;;
17921;SDS011;9086;50.966;3.144;2023-03-14T05:40:22;6.30;;;1.93;;
17921;SDS011;9086;50.966;3.144;2023-03-14T05:42:48;6.50;;;2.07;;
17921;SDS011;9086;50.966;3.144;2023-03-14T05:45:14;4.70;;;2.20;;
17921;SDS011;9086;50.966;3.144;2023-03-14T05:47:40;6.70;;;2.40;;
17921;SDS011;9086;50.966;3.144;2023-03-14T05:50:06;5.13;;;2.37;;
17921;SDS011;9086;50.966;3.144;2023-03-14T05:52:32;5.13;;;1.83;;
17921;SDS011;9086;50.966;3.144;2023-03-14T05:54:58;6.10;;;1.90;;
17921;SDS011;9086;50.966;3.144;2023-03-14T05:57:24;7.57;;;3.07;;
17921;SDS011;9086;50.966;3.144;2023-03-14T05:59:50;7.67;;;2.00;;
17921;SDS011;9086;50.966;3.144;2023-03-14T06:02:16;4.57;;;2.73;;
17921;SDS011;9086;50.966;3.144;2023-03-14T06:04:42;6.23;;;2.97;;
17921;SDS011;9086;50.966;3.144;2023-03-14T06:07:08;6.83;;;2.87;;
17921;SDS011;9086;50.966;3.144;2023-03-14T06:09:34;4.07;;;2.43;;
17921;SDS011;9086;50.966;3.144;2023-03-14T06:12:00;5.23;;;2.40;;
17921;SDS011;9086;50.966;3.144;2023-03-14T06:14:25;6.97;;;2.93;;
17921;SDS011;9086;50.966;3.144;2023-03-14T06:16:51;7.20;;;2.93;;
17921;SDS011;9086;50.966;3.144;2023-03-14T06:19:18;7.33;;;2.67;;
17921;SDS011;9086;50.966;3.144;2023-03-14T06:21:44;5.37;;;2.50;;
17921;SDS011;9086;50.966;3.144;2023-03-14T06:24:10;7.40;;;2.90;;
17921;SDS011;9086;50.966;3.144;2023-03-14T06:26:36;8.50;;;3.37;;
17921;SDS011;9086;50.966;3.144;2023-03-14T06:29:02;5.33;;;3.60;;
17921;SDS011;9086;50.966;3.144;2023-03-14T06:31:30;6.77;;;3.87;;
17921;SDS011;9086;50.966;3.144;2023-03-14T06:33:56;9.70;;;3.13;;
17921;SDS011;9086;50.966;3.144;2023-03-14T06:36:22;7.43;;;3.53;;
17921;SDS011;9086;50.966;3.144;2023-03-14T06:38:48;9.47;;;4.00;;
17921;SDS011;9086;50.966;3.144;2023-03-14T06:41:14;9.93;;;3.90;;
17921;SDS011;9086;50.966;3.144;2023-03-14T06:43:40;11.80;;;3.40;;
17921;SDS011;9086;50.966;3.144;2023-03-14T06:46:06;7.83;;;3.50;;
17921;SDS011;9086;50.966;3.144;2023-03-14T06:48:32;4.43;;;3.10;;
17921;SDS011;9086;50.966;3.144;2023-03-14T06:50:58;7.97;;;3.07;;
17921;SDS011;9086;50.966;3.144;2023-03-14T06:53:24;6.80;;;2.50;;
17921;SDS011;9086;50.966;3.144;2023-03-14T06:55:50;8.20;;;2.77;;
17921;SDS011;9086;50.966;3.144;2023-03-14T06:58:16;6.90;;;2.27;;
17921;SDS011;9086;50.966;3.144;2023-03-14T07:00:42;8.47;;;2.00;;
17921;SDS011;9086;50.966;3.144;2023-03-14T07:03:08;8.13;;;2.43;;
17921;SDS011;9086;50.966;3.144;2023-03-14T07:05:35;6.27;;;2.20;;
17921;SDS011;9086;50.966;3.144;2023-03-14T07:08:01;10.27;;;2.90;;
17921;SDS011;9086;50.966;3.144;2023-03-14T07:10:27;6.50;;;2.40;;
17921;SDS011;9086;50.966;3.144;2023-03-14T07:12:53;10.53;;;2.57;;
17921;SDS011;9086;50.966;3.144;2023-03-14T07:15:19;11.97;;;2.67;;
17921;SDS011;9086;50.966;3.144;2023-03-14T07:17:46;11.60;;;3.33;;
17921;SDS011;9086;50.966;3.144;2023-03-14T07:20:15;11.80;;;2.40;;
17921;SDS011;9086;50.966;3.144;2023-03-14T07:22:41;6.40;;;2.00;;
17921;SDS011;9086;50.966;3.144;2023-03-14T07:25:07;7.33;;;1.73;;
17921;SDS011;9086;50.966;3.144;2023-03-14T07:27:34;6.80;;;2.00;;
17921;SDS011;9086;50.966;3.144;2023-03-14T07:30:00;7.07;;;2.00;;
17921;SDS011;9086;50.966;3.144;2023-03-14T07:32:26;6.27;;;2.17;;
17921;SDS011;9086;50.966;3.144;2023-03-14T07:34:52;9.30;;;1.63;;
17921;SDS011;9086;50.966;3.144;2023-03-14T07:37:18;8.23;;;2.20;;
17921;SDS011;9086;50.966;3.144;2023-03-14T07:39:44;4.10;;;1.77;;
17921;SDS011;9086;50.966;3.144;2023-03-14T07:42:10;6.87;;;1.90;;
17921;SDS011;9086;50.966;3.144;2023-03-14T07:44:36;5.17;;;1.70;;
17921;SDS011;9086;50.966;3.144;2023-03-14T07:47:02;5.73;;;1.57;;
17921;SDS011;9086;50.966;3.144;2023-03-14T07:49:28;7.10;;;1.67;;
17921;SDS011;9086;50.966;3.144;2023-03-14T07:51:54;3.90;;;1.17;;
17921;SDS011;9086;50.966;3.144;2023-03-14T07:54:20;4.87;;;1.33;;
17921;SDS011;9086;50.966;3.144;2023-03-14T07:56:47;7.83;;;1.50;;
17921;SDS011;9086;50.966;3.144;2023-03-14T07:59:13;6.63;;;1.87;;
17921;SDS011;9086;50.966;3.144;2023-03-14T08:01:38;9.13;;;1.60;;
17921;SDS011;9086;50.966;3.144;2023-03-14T08:04:04;7.47;;;1.43;;
17921;SDS011;9086;50.966;3.144;2023-03-14T08:06:30;6.47;;;1.33;;
17921;SDS011;9086;50.966;3.144;2023-03-14T08:08:56;8.97;;;1.47;;
17921;SDS011;9086;50.966;3.144;2023-03-14T08:11:22;4.20;;;1.37;;
17921;SDS011;9086;50.966;3.144;2023-03-14T08:13:48;6.07;;;1.60;;
17921;SDS011;9086;50.966;3.144;2023-03-14T08:16:16;7.53;;;1.97;;
17921;SDS011;9086;50.966;3.144;2023-03-14T08:18:42;6.90;;;1.97;;
17921;SDS011;9086;50.966;3.144;2023-03-14T08:21:08;3.73;;;1.40;;
17921;SDS011;9086;50.966;3.144;2023-03-14T08:23:34;3.87;;;2.47;;
17921;SDS011;9086;50.966;3.144;2023-03-14T08:26:00;5.30;;;1.30;;
17921;SDS011;9086;50.966;3.144;2023-03-14T08:28:26;6.13;;;2.50;;
17921;SDS011;9086;50.966;3.144;2023-03-14T08:30:58;6.00;;;1.10;;
17921;SDS011;9086;50.966;3.144;2023-03-14T08:33:24;3.70;;;0.80;;
17921;SDS011;9086;50.966;3.144;2023-03-14T08:35:54;6.97;;;1.60;;
17921;SDS011;9086;50.966;3.144;2023-03-14T08:38:20;8.00;;;1.37;;
17921;SDS011;9086;50.966;3.144;2023-03-14T08:40:46;5.40;;;1.57;;
17921;SDS011;9086;50.966;3.144;2023-03-14T08:43:12;3.80;;;1.00;;
17921;SDS011;9086;50.966;3.144;2023-03-14T08:45:38;7.60;;;1.17;;
17921;SDS011;9086;50.966;3.144;2023-03-14T08:48:04;1.87;;;0.77;;
17921;SDS011;9086;50.966;3.144;2023-03-14T08:50:30;8.10;;;1.60;;
17921;SDS011;9086;50.966;3.144;2023-03-14T08:52:56;7.37;;;1.50;;
17921;SDS011;9086;50.966;3.144;2023-03-14T08:55:26;4.50;;;1.37;;
17921;SDS011;9086;50.966;3.144;2023-03-14T08:57:52;7.13;;;1.40;;
17921;SDS011;9086;50.966;3.144;2023-03-14T09:00:19;5.90;;;1.57;;
17921;SDS011;9086;50.966;3.144;2023-03-14T09:02:45;3.27;;;1.20;;
17921;SDS011;9086;50.966;3.144;2023-03-14T09:05:11;3.13;;;1.00;;
17921;SDS011;9086;50.966;3.144;2023-03-14T09:07:38;4.43;;;0.80;;
17921;SDS011;9086;50.966;3.144;2023-03-14T09:10:04;4.47;;;1.33;;
17921;SDS011;9086;50.966;3.144;2023-03-14T09:12:30;4.53;;;1.13;;
17921;SDS011;9086;50.966;3.144;2023-03-14T09:14:56;4.77;;;1.10;;
17921;SDS011;9086;50.966;3.144;2023-03-14T09:17:22;5.83;;;1.43;;
17921;SDS011;9086;50.966;3.144;2023-03-14T09:19:48;2.87;;;0.93;;
17921;SDS011;9086;50.966;3.144;2023-03-14T09:22:14;5.97;;;1.17;;
17921;SDS011;9086;50.966;3.144;2023-03-14T09:24:41;3.77;;;1.33;;
17921;SDS011;9086;50.966;3.144;2023-03-14T09:27:07;2.23;;;1.00;;
17921;SDS011;9086;50.966;3.144;2023-03-14T09:29:33;2.83;;;1.20;;
17921;SDS011;9086;50.966;3.144;2023-03-14T09:31:59;3.40;;;1.30;;
17921;SDS011;9086;50.966;3.144;2023-03-14T09:34:26;9.70;;;1.67;;
17921;SDS011;9086;50.966;3.144;2023-03-14T09:36:52;4.73;;;1.30;;
17921;SDS011;9086;50.966;3.144;2023-03-14T09:39:18;6.10;;;1.40;;
17921;SDS011;9086;50.966;3.144;2023-03-14T09:41:45;6.33;;;1.57;;
17921;SDS011;9086;50.966;3.144;2023-03-14T09:44:13;5.43;;;1.33;;
17921;SDS011;9086;50.966;3.144;2023-03-14T09:46:40;8.03;;;1.50;;
17921;SDS011;9086;50.966;3.144;2023-03-14T09:49:09;6.10;;;1.53;;
17921;SDS011;9086;50.966;3.144;2023-03-14T09:51:37;3.27;;;1.07;;
17921;SDS011;9086;50.966;3.144;2023-03-14T09:54:02;6.20;;;1.53;;
17921;SDS011;9086;50.966;3.144;2023-03-14T09:56:31;6.30;;;1.30;;
17921;SDS011;9086;50.966;3.144;2023-03-14T09:58:58;8.60;;;1.60;;
17921;SDS011;9086;50.966;3.144;2023-03-14T10:01:27;5.77;;;0.93;;
17921;SDS011;9086;50.966;3.144;2023-03-14T10:03:54;5.03;;;1.83;;
17921;SDS011;9086;50.966;3.144;2023-03-14T10:06:22;5.50;;;1.73;;
17921;SDS011;9086;50.966;3.144;2023-03-14T10:08:49;5.03;;;1.53;;
17921;SDS011;9086;50.966;3.144;2023-03-14T10:11:16;3.37;;;1.03;;
17921;SDS011;9086;50.966;3.144;2023-03-14T10:16:28;6.20;;;1.87;;
17921;SDS011;9086;50.966;3.144;2023-03-14T10:18:58;8.63;;;1.83;;
17921;SDS011;9086;50.966;3.144;2023-03-14T10:21:28;4.60;;;1.57;;
17921;SDS011;9086;50.966;3.144;2023-03-14T10:23:54;6.47;;;2.63;;
17921;SDS011;9086;50.966;3.144;2023-03-14T10:26:24;6.53;;;1.63;;
17921;SDS011;9086;50.966;3.144;2023-03-14T10:28:53;10.20;;;2.00;;
17921;SDS011;9086;50.966;3.144;2023-03-14T10:31:24;8.67;;;1.67;;
17921;SDS011;9086;50.966;3.144;2023-03-14T10:34:01;5.70;;;1.40;;
17921;SDS011;9086;50.966;3.144;2023-03-14T10:36:32;7.17;;;1.40;;
17921;SDS011;9086;50.966;3.144;2023-03-14T10:41:47;7.03;;;1.47;;
17921;SDS011;9086;50.966;3.144;2023-03-14T10:44:13;4.17;;;1.47;;
17921;SDS011;9086;50.966;3.144;2023-03-14T10:46:41;3.80;;;1.10;;
17921;SDS011;9086;50.966;3.144;2023-03-14T10:49:07;2.87;;;0.90;;
17921;SDS011;9086;50.966;3.144;2023-03-14T10:51:33;4.87;;;1.03;;
17921;SDS011;9086;50.966;3.144;2023-03-14T10:54:04;3.00;;;0.90;;
17921;SDS011;9086;50.966;3.144;2023-03-14T10:56:37;3.97;;;0.80;;
17921;SDS011;9086;50.966;3.144;2023-03-14T10:59:06;2.23;;;0.90;;
17921;SDS011;9086;50.966;3.144;2023-03-14T11:09:25;2.07;;;1.00;;
17921;SDS011;9086;50.966;3.144;2023-03-14T11:11:55;5.13;;;0.83;;
17921;SDS011;9086;50.966;3.144;2023-03-14T11:14:38;5.07;;;0.87;;
17921;SDS011;9086;50.966;3.144;2023-03-14T11:25:15;1.90;;;1.00;;
17921;SDS011;9086;50.966;3.144;2023-03-14T11:30:42;4.00;;;1.03;;
17921;SDS011;9086;50.966;3.144;2023-03-14T11:33:55;2.63;;;1.43;;
17921;SDS011;9086;50.966;3.144;2023-03-14T11:36:06;2.97;;;1.70;;
17921;SDS011;9086;50.966;3.144;2023-03-14T11:38:43;2.90;;;1.70;;
17921;SDS011;9086;50.966;3.144;2023-03-14T11:41:14;3.20;;;1.80;;
17921;SDS011;9086;50.966;3.144;2023-03-14T11:43:40;4.73;;;2.00;;
17921;SDS011;9086;50.966;3.144;2023-03-14T11:46:14;2.63;;;1.60;;
17921;SDS011;9086;50.966;3.144;2023-03-14T11:48:59;6.93;;;1.60;;
17921;SDS011;9086;50.966;3.144;2023-03-14T11:51:32;2.70;;;1.43;;
17921;SDS011;9086;50.966;3.144;2023-03-14T12:02:05;6.17;;;2.30;;
17921;SDS011;9086;50.966;3.144;2023-03-14T12:07:19;4.07;;;2.20;;
17921;SDS011;9086;50.966;3.144;2023-03-14T12:09:45;5.63;;;2.37;;
17921;SDS011;9086;50.966;3.144;2023-03-14T12:12:12;5.97;;;2.60;;
17921;SDS011;9086;50.966;3.144;2023-03-14T12:14:45;9.37;;;1.97;;
17921;SDS011;9086;50.966;3.144;2023-03-14T12:19:39;4.07;;;1.73;;
17921;SDS011;9086;50.966;3.144;2023-03-14T12:24:32;10.23;;;2.20;;
17921;SDS011;9086;50.966;3.144;2023-03-14T12:27:02;10.97;;;2.70;;
17921;SDS011;9086;50.966;3.144;2023-03-14T12:29:28;13.87;;;3.20;;
17921;SDS011;9086;50.966;3.144;2023-03-14T12:34:28;12.00;;;3.93;;
17921;SDS011;9086;50.966;3.144;2023-03-14T12:36:59;20.43;;;3.60;;
17921;SDS011;9086;50.966;3.144;2023-03-14T12:44:38;12.97;;;3.07;;
17921;SDS011;9086;50.966;3.144;2023-03-14T12:49:44;12.17;;;3.23;;
17921;SDS011;9086;50.966;3.144;2023-03-14T12:52:14;7.83;;;1.67;;
17921;SDS011;9086;50.966;3.144;2023-03-14T12:54:49;9.60;;;2.83;;
17921;SDS011;9086;50.966;3.144;2023-03-14T12:59:52;9.97;;;2.50;;
17921;SDS011;9086;50.966;3.144;2023-03-14T13:02:25;6.70;;;1.67;;
17921;SDS011;9086;50.966;3.144;2023-03-14T13:07:33;6.57;;;2.23;;
17921;SDS011;9086;50.966;3.144;2023-03-14T13:10:04;6.40;;;2.40;;
17921;SDS011;9086;50.966;3.144;2023-03-14T13:12:52;11.60;;;3.20;;
17921;SDS011;9086;50.966;3.144;2023-03-14T13:15:26;10.13;;;2.90;;
17921;SDS011;9086;50.966;3.144;2023-03-14T13:17:54;9.77;;;2.10;;
17921;SDS011;9086;50.966;3.144;2023-03-14T13:22:48;6.57;;;1.97;;
17921;SDS011;9086;50.966;3.144;2023-03-14T13:25:14;8.33;;;2.27;;
17921;SDS011;9086;50.966;3.144;2023-03-14T13:27:41;10.00;;;2.20;;
17921;SDS011;9086;50.966;3.144;2023-03-14T13:32:41;11.03;;;2.80;;
17921;SDS011;9086;50.966;3.144;2023-03-14T13:37:46;9.57;;;1.63;;
17921;SDS011;9086;50.966;3.144;2023-03-14T13:40:24;13.23;;;2.87;;
17921;SDS011;9086;50.966;3.144;2023-03-14T13:42:59;5.77;;;1.90;;
17921;SDS011;9086;50.966;3.144;2023-03-14T13:45:25;12.70;;;2.27;;
17921;SDS011;9086;50.966;3.144;2023-03-14T13:47:51;14.00;;;2.13;;
17921;SDS011;9086;50.966;3.144;2023-03-14T13:50:17;13.70;;;2.37;;
17921;SDS011;9086;50.966;3.144;2023-03-14T13:52:44;4.97;;;1.20;;
17921;SDS011;9086;50.966;3.144;2023-03-14T13:55:15;5.43;;;2.20;;
17921;SDS011;9086;50.966;3.144;2023-03-14T13:57:48;2.40;;;0.80;;
17921;SDS011;9086;50.966;3.144;2023-03-14T14:00:20;5.27;;;1.23;;
17921;SDS011;9086;50.966;3.144;2023-03-14T14:02:46;2.57;;;0.60;;
17921;SDS011;9086;50.966;3.144;2023-03-14T14:05:13;2.57;;;0.50;;
17921;SDS011;9086;50.966;3.144;2023-03-14T14:07:39;6.80;;;0.93;;
17921;SDS011;9086;50.966;3.144;2023-03-14T14:10:06;2.30;;;0.70;;
17921;SDS011;9086;50.966;3.144;2023-03-14T14:12:36;2.57;;;0.77;;
17921;SDS011;9086;50.966;3.144;2023-03-14T14:17:42;2.27;;;0.63;;
17921;SDS011;9086;50.966;3.144;2023-03-14T14:20:19;3.37;;;1.00;;
17921;SDS011;9086;50.966;3.144;2023-03-14T14:22:47;3.97;;;0.97;;
17921;SDS011;9086;50.966;3.144;2023-03-14T14:25:13;3.33;;;0.80;;
17921;SDS011;9086;50.966;3.144;2023-03-14T14:27:42;2.80;;;0.70;;
17921;SDS011;9086;50.966;3.144;2023-03-14T14:32:38;5.03;;;0.87;;
17921;SDS011;9086;50.966;3.144;2023-03-14T14:35:05;4.17;;;1.13;;
17921;SDS011;9086;50.966;3.144;2023-03-14T14:37:32;3.43;;;1.00;;
17921;SDS011;9086;50.966;3.144;2023-03-14T14:40:00;2.73;;;0.93;;
17921;SDS011;9086;50.966;3.144;2023-03-14T14:42:27;3.93;;;1.20;;
17921;SDS011;9086;50.966;3.144;2023-03-14T14:44:55;2.33;;;0.83;;
17921;SDS011;9086;50.966;3.144;2023-03-14T14:47:22;4.73;;;1.70;;
17921;SDS011;9086;50.966;3.144;2023-03-14T14:49:49;6.67;;;1.73;;
17921;SDS011;9086;50.966;3.144;2023-03-14T14:52:17;4.43;;;1.77;;
17921;SDS011;9086;50.966;3.144;2023-03-14T14:54:44;2.43;;;1.20;;
17921;SDS011;9086;50.966;3.144;2023-03-14T14:57:22;2.93;;;1.30;;
17921;SDS011;9086;50.966;3.144;2023-03-14T14:59:48;8.10;;;2.60;;
17921;SDS011;9086;50.966;3.144;2023-03-14T15:02:28;4.03;;;1.93;;
17921;SDS011;9086;50.966;3.144;2023-03-14T15:04:55;4.00;;;1.40;;
17921;SDS011;9086;50.966;3.144;2023-03-14T15:07:21;2.90;;;0.63;;
17921;SDS011;9086;50.966;3.144;2023-03-14T15:09:47;3.37;;;0.80;;
17921;SDS011;9086;50.966;3.144;2023-03-14T15:12:13;0.97;;;0.40;;
17921;SDS011;9086;50.966;3.144;2023-03-14T15:14:39;4.03;;;1.10;;
17921;SDS011;9086;50.966;3.144;2023-03-14T15:17:05;1.13;;;0.60;;
17921;SDS011;9086;50.966;3.144;2023-03-14T15:19:34;3.03;;;1.10;;
17921;SDS011;9086;50.966;3.144;2023-03-14T15:22:00;3.20;;;1.00;;
17921;SDS011;9086;50.966;3.144;2023-03-14T15:24:26;3.83;;;0.90;;
17921;SDS011;9086;50.966;3.144;2023-03-14T15:26:52;5.27;;;1.20;;
17921;SDS011;9086;50.966;3.144;2023-03-14T15:29:18;5.93;;;1.27;;
17921;SDS011;9086;50.966;3.144;2023-03-14T15:31:44;5.03;;;0.90;;
17921;SDS011;9086;50.966;3.144;2023-03-14T15:34:10;4.03;;;0.93;;
17921;SDS011;9086;50.966;3.144;2023-03-14T15:36:36;6.47;;;0.70;;
17921;SDS011;9086;50.966;3.144;2023-03-14T15:39:03;3.30;;;1.17;;
17921;SDS011;9086;50.966;3.144;2023-03-14T15:41:29;4.40;;;1.03;;
17921;SDS011;9086;50.966;3.144;2023-03-14T15:43:55;3.97;;;1.00;;
17921;SDS011;9086;50.966;3.144;2023-03-14T15:46:22;2.90;;;1.10;;
17921;SDS011;9086;50.966;3.144;2023-03-14T15:48:48;5.03;;;1.50;;
17921;SDS011;9086;50.966;3.144;2023-03-14T15:51:15;5.93;;;1.57;;
17921;SDS011;9086;50.966;3.144;2023-03-14T15:53:41;7.10;;;1.73;;
17921;SDS011;9086;50.966;3.144;2023-03-14T15:56:13;6.50;;;1.67;;
17921;SDS011;9086;50.966;3.144;2023-03-14T15:58:39;4.93;;;1.27;;
17921;SDS011;9086;50.966;3.144;2023-03-14T16:01:06;5.83;;;1.57;;
17921;SDS011;9086;50.966;3.144;2023-03-14T16:03:34;3.17;;;1.13;;
17921;SDS011;9086;50.966;3.144;2023-03-14T16:06:00;3.43;;;1.30;;
17921;SDS011;9086;50.966;3.144;2023-03-14T16:08:26;9.47;;;1.50;;
17921;SDS011;9086;50.966;3.144;2023-03-14T16:10:53;5.07;;;1.63;;
17921;SDS011;9086;50.966;3.144;2023-03-14T16:13:20;4.60;;;1.63;;
17921;SDS011;9086;50.966;3.144;2023-03-14T16:15:59;7.43;;;1.63;;
17921;SDS011;9086;50.966;3.144;2023-03-14T16:18:29;7.77;;;1.77;;